createdAt,value
2023-03-17T00:01:45.978Z,57.40
2023-03-17T00:04:13.243Z,56.09
2023-03-17T00:06:40.482Z,57.75
2023-03-17T00:09:15.774Z,56.71
2023-03-17T00:11:43.878Z,56.98
2023-03-17T00:14:10.832Z,56.61
2023-03-17T00:16:44.041Z,56.83
2023-03-17T00:19:31.847Z,55.88
2023-03-17T00:21:59.220Z,57.14
2023-03-17T00:24:25.844Z,57.43
2023-03-17T00:26:52.456Z,56.92
2023-03-17T00:29:19.090Z,56.94
2023-03-17T00:31:46.550Z,56.16
2023-03-17T00:34:18.165Z,58.34
2023-03-17T00:36:47.917Z,57.72
2023-03-17T00:41:41.794Z,57.40
2023-03-17T00:44:08.525Z,57.79
2023-03-17T00:46:36.677Z,56.58
2023-03-17T00:49:13.218Z,56.04
2023-03-17T00:51:39.895Z,55.42
2023-03-17T00:54:06.541Z,54.45
2023-03-17T00:56:33.154Z,55.22
2023-03-17T00:58:59.801Z,55.63
2023-03-17T01:01:26.284Z,55.93
2023-03-17T01:03:52.777Z,55.46
2023-03-17T01:06:19.420Z,54.57
2023-03-17T01:08:46.086Z,55.02
2023-03-17T01:11:16.001Z,54.89
2023-03-17T01:13:42.574Z,55.00
2023-03-17T01:16:11.114Z,56.10
2023-03-17T01:18:37.972Z,56.43
2023-03-17T01:21:04.849Z,57.21
2023-03-17T01:23:31.512Z,56.92
2023-03-17T01:25:58.278Z,57.63
2023-03-17T01:28:24.844Z,57.53
2023-03-17T01:30:51.424Z,57.08
2023-03-17T01:33:18.024Z,57.90
2023-03-17T01:35:44.632Z,56.23
2023-03-17T01:38:11.912Z,56.98
2023-03-17T01:40:44.323Z,56.17
2023-03-17T01:43:10.763Z,56.10
2023-03-17T01:46:14.945Z,57.29
2023-03-17T01:48:55.033Z,56.25
2023-03-17T01:51:32.545Z,57.34
2023-03-17T01:54:08.107Z,57.31
2023-03-17T01:56:36.402Z,56.77
2023-03-17T01:59:07.501Z,57.00
2023-03-17T02:01:38.703Z,56.87
2023-03-17T02:04:06.556Z,57.23
2023-03-17T02:06:34.938Z,58.11
2023-03-17T02:09:02.714Z,58.18
2023-03-17T02:11:30.433Z,58.02
2023-03-17T02:13:56.970Z,58.70
2023-03-17T02:16:23.622Z,58.08
2023-03-17T02:18:50.242Z,58.97
2023-03-17T02:21:35.452Z,57.89
2023-03-17T02:24:07.862Z,58.40
2023-03-17T02:26:36.371Z,58.11
2023-03-17T02:29:03.864Z,58.98
2023-03-17T02:31:30.541Z,58.70
2023-03-17T02:33:57.194Z,58.42
2023-03-17T02:36:24.040Z,59.16
2023-03-17T02:38:50.733Z,59.26
2023-03-17T02:41:17.636Z,58.65
2023-03-17T02:43:44.192Z,58.72
2023-03-17T02:46:10.932Z,58.59
2023-03-17T02:48:39.048Z,60.02
2023-03-17T02:51:05.873Z,59.85
2023-03-17T02:53:32.636Z,59.71
2023-03-17T02:55:59.348Z,60.15
2023-03-17T02:58:25.884Z,60.46
2023-03-17T03:00:52.461Z,59.79
2023-03-17T03:03:19.066Z,60.07
2023-03-17T03:05:45.622Z,60.56
2023-03-17T03:08:12.184Z,59.28
2023-03-17T03:10:38.815Z,60.40
2023-03-17T03:13:05.543Z,60.47
2023-03-17T03:15:32.192Z,60.04
2023-03-17T03:17:58.790Z,60.63
2023-03-17T03:20:25.456Z,60.91
2023-03-17T03:22:52.263Z,59.77
2023-03-17T03:25:18.961Z,60.03
2023-03-17T03:27:45.447Z,59.92
2023-03-17T03:30:12.388Z,59.50
2023-03-17T03:32:39.051Z,59.70
2023-03-17T03:35:06.119Z,60.56
2023-03-17T03:37:32.725Z,58.93
2023-03-17T03:39:59.274Z,60.30
2023-03-17T03:42:26.776Z,59.68
2023-03-17T03:44:53.470Z,59.63
2023-03-17T03:47:20.143Z,59.21
2023-03-17T03:49:46.746Z,60.04
2023-03-17T03:52:13.514Z,61.16
2023-03-17T03:54:40.037Z,60.86
2023-03-17T03:57:06.882Z,61.68
2023-03-17T03:59:33.488Z,60.23
2023-03-17T04:02:00.180Z,61.21
2023-03-17T04:04:26.926Z,61.10
2023-03-17T04:06:53.633Z,60.69
2023-03-17T04:09:20.391Z,61.84
2023-03-17T04:11:47.040Z,61.06
2023-03-17T04:14:13.745Z,62.46
2023-03-17T04:16:43.191Z,62.10
2023-03-17T04:19:10.239Z,62.27
2023-03-17T04:21:37.364Z,61.52
2023-03-17T04:24:04.543Z,62.46
2023-03-17T04:26:32.026Z,61.20
2023-03-17T04:28:58.675Z,62.06
2023-03-17T04:31:25.204Z,62.55
2023-03-17T04:33:51.808Z,62.24
2023-03-17T04:36:23.193Z,61.81
2023-03-17T04:38:50.201Z,62.01
2023-03-17T04:41:16.910Z,61.50
2023-03-17T04:43:43.510Z,62.26
2023-03-17T04:46:10.250Z,61.71
2023-03-17T04:48:36.766Z,62.22
2023-03-17T04:51:03.706Z,61.87
2023-03-17T04:53:30.266Z,61.85
2023-03-17T04:55:56.867Z,62.57
2023-03-17T04:58:30.709Z,62.65
2023-03-17T05:00:58.382Z,61.89
2023-03-17T05:03:27.572Z,61.77
2023-03-17T05:05:54.419Z,61.05
2023-03-17T05:08:21.143Z,60.46
2023-03-17T05:10:47.811Z,60.64
2023-03-17T05:13:14.677Z,59.34
2023-03-17T05:15:44.569Z,59.10
2023-03-17T05:18:11.100Z,59.15
2023-03-17T05:20:37.700Z,58.71
2023-03-17T05:23:04.459Z,57.59
2023-03-17T05:25:31.248Z,57.18
2023-03-17T05:27:57.833Z,55.79
2023-03-17T05:30:25.140Z,56.82
2023-03-17T05:32:51.823Z,55.09
2023-03-17T05:35:18.532Z,54.49
2023-03-17T05:37:45.535Z,53.94
2023-03-17T05:40:13.401Z,54.54
2023-03-17T05:42:40.932Z,53.29
2023-03-17T05:45:08.263Z,52.99
2023-03-17T05:47:35.186Z,52.58
2023-03-17T05:50:02.512Z,53.06
2023-03-17T05:52:29.234Z,53.39
2023-03-17T05:54:55.719Z,52.86
2023-03-17T05:57:22.815Z,52.29
2023-03-17T05:59:49.769Z,52.42
2023-03-17T06:02:16.957Z,51.42
2023-03-17T06:04:43.593Z,50.03
2023-03-17T06:07:10.392Z,49.41
2023-03-17T06:09:36.945Z,49.63
2023-03-17T06:12:03.736Z,48.04
2023-03-17T06:14:30.619Z,49.02
2023-03-17T06:16:57.159Z,47.28
2023-03-17T06:19:24.319Z,46.55
2023-03-17T06:21:50.942Z,46.40
2023-03-17T06:24:17.596Z,45.62
2023-03-17T06:26:44.440Z,46.22
2023-03-17T06:29:11.113Z,44.46
2023-03-17T06:31:38.060Z,44.58
2023-03-17T06:34:05.483Z,44.80
2023-03-17T06:36:33.092Z,44.78
2023-03-17T06:38:59.970Z,45.31
2023-03-17T06:41:27.118Z,44.79
2023-03-17T06:43:53.800Z,43.04
2023-03-17T06:46:20.406Z,43.56
2023-03-17T06:48:46.971Z,44.51
2023-03-17T06:51:16.448Z,43.53
2023-03-17T06:53:52.384Z,42.70
2023-03-17T06:56:29.574Z,41.46
2023-03-17T06:58:56.523Z,39.36
2023-03-17T07:01:23.227Z,40.02
2023-03-17T07:03:49.857Z,40.22
2023-03-17T07:06:16.713Z,40.28
2023-03-17T07:08:44.108Z,40.02
2023-03-17T07:11:16.792Z,40.98
2023-03-17T07:13:52.510Z,40.05
2023-03-17T07:16:42.310Z,39.20
2023-03-17T07:19:18.505Z,38.72
2023-03-17T07:21:58.364Z,39.07
2023-03-17T07:24:49.471Z,39.86
2023-03-17T07:27:22.754Z,39.13
2023-03-17T07:29:51.051Z,37.80
2023-03-17T07:32:17.719Z,38.15
2023-03-17T07:34:44.313Z,37.71
2023-03-17T07:37:16.490Z,37.11
2023-03-17T07:39:43.066Z,36.78
2023-03-17T07:42:16.737Z,36.48
2023-03-17T07:44:43.891Z,36.33
2023-03-17T07:47:11.591Z,35.27
2023-03-17T07:49:42.086Z,32.92
2023-03-17T07:52:11.217Z,33.43
2023-03-17T07:54:38.037Z,32.83
2023-03-17T07:57:05.797Z,32.74
2023-03-17T07:59:32.715Z,32.86
2023-03-17T08:02:00.481Z,31.33
2023-03-17T08:04:27.716Z,32.13
2023-03-17T08:06:54.526Z,31.39
2023-03-17T08:09:21.778Z,31.85
2023-03-17T08:11:48.487Z,33.01
2023-03-17T08:14:15.208Z,33.09
2023-03-17T08:16:41.942Z,35.05
2023-03-17T08:19:10.020Z,34.10
2023-03-17T08:21:36.679Z,36.10
2023-03-17T08:24:03.857Z,35.22
2023-03-17T08:26:30.718Z,34.18
2023-03-17T08:28:57.370Z,33.42
2023-03-17T08:31:24.094Z,32.44
2023-03-17T08:33:53.367Z,33.06
2023-03-17T08:36:20.813Z,30.26
2023-03-17T08:38:48.155Z,29.99
2023-03-17T08:41:19.312Z,29.07
2023-03-17T08:43:47.475Z,29.34
2023-03-17T08:46:20.296Z,29.04
2023-03-17T08:48:48.928Z,30.41
2023-03-17T08:51:18.957Z,31.03
2023-03-17T08:53:47.149Z,30.28
2023-03-17T08:56:14.345Z,29.97
2023-03-17T08:58:59.639Z,29.49
2023-03-17T09:01:30.443Z,28.18
2023-03-17T09:03:57.264Z,28.06
2023-03-17T09:06:24.388Z,27.47
2023-03-17T09:08:52.038Z,27.10
2023-03-17T09:11:20.212Z,25.17
2023-03-17T09:13:47.628Z,24.47
2023-03-17T09:16:15.056Z,23.96
2023-03-17T09:18:42.460Z,23.87
2023-03-17T09:21:11.782Z,24.71
2023-03-17T09:23:38.662Z,22.87
2023-03-17T09:26:05.386Z,22.77
2023-03-17T09:28:32.074Z,22.88
2023-03-17T09:30:59.794Z,22.44
2023-03-17T09:33:26.390Z,19.05
2023-03-17T09:35:53.155Z,18.60
2023-03-17T09:38:19.975Z,19.28
2023-03-17T09:40:54.606Z,18.49
2023-03-17T09:43:48.818Z,19.68
2023-03-17T09:46:54.354Z,20.49
2023-03-17T09:49:24.779Z,20.24
2023-03-17T09:51:51.503Z,18.99
2023-03-17T09:54:36.565Z,17.31
2023-03-17T09:57:27.098Z,18.15
2023-03-17T10:00:19.415Z,19.67
2023-03-17T10:02:46.499Z,17.66
2023-03-17T10:05:13.156Z,15.73
2023-03-17T10:08:03.223Z,16.23
2023-03-17T10:10:47.806Z,14.55
2023-03-17T10:13:32.470Z,13.82
2023-03-17T10:16:03.264Z,14.98
2023-03-17T10:18:55.987Z,14.10
2023-03-17T10:21:31.609Z,15.66
2023-03-17T10:23:58.902Z,17.24
2023-03-17T10:26:34.605Z,15.76
2023-03-17T10:29:10.770Z,13.40
2023-03-17T10:31:38.265Z,14.68
2023-03-17T10:34:17.150Z,14.10
2023-03-17T10:36:50.134Z,12.61
2023-03-17T10:39:27.567Z,12.16
2023-03-17T10:41:58.380Z,12.72
2023-03-17T10:44:45.618Z,14.83
2023-03-17T10:47:37.020Z,12.70
2023-03-17T10:50:24.294Z,14.17
2023-03-17T10:52:59.168Z,16.51
2023-03-17T10:55:31.754Z,15.72
2023-03-17T10:57:58.347Z,14.10
2023-03-17T11:00:28.755Z,14.09
2023-03-17T11:02:59.679Z,15.49
2023-03-17T11:05:28.742Z,14.58
2023-03-17T11:08:18.368Z,15.14
2023-03-17T11:10:45.421Z,14.86
2023-03-17T11:13:17.919Z,15.59
2023-03-17T11:16:04.197Z,14.06
2023-03-17T11:18:39.407Z,16.30
2023-03-17T11:21:18.085Z,15.22
2023-03-17T11:23:53.041Z,14.55
2023-03-17T11:26:51.738Z,13.40
2023-03-17T11:29:21.390Z,12.26
2023-03-17T11:31:53.718Z,11.33
2023-03-17T11:34:35.286Z,10.97
2023-03-17T11:37:33.931Z,13.02
2023-03-17T11:40:19.865Z,17.22
2023-03-17T11:43:08.059Z,18.75
2023-03-17T11:45:40.520Z,18.46
2023-03-17T11:48:23.616Z,20.93
2023-03-17T11:51:14.581Z,19.38
2023-03-17T11:53:50.283Z,21.65
2023-03-17T11:56:20.706Z,21.47
2023-03-17T11:58:53.386Z,23.16
2023-03-17T12:01:26.648Z,22.24
2023-03-17T12:04:14.510Z,22.58
2023-03-17T12:06:58.846Z,24.79
2023-03-17T12:09:43.578Z,23.83
2023-03-17T12:12:13.837Z,24.63
2023-03-17T12:14:47.240Z,24.21
2023-03-17T12:17:16.904Z,24.21
2023-03-17T12:19:56.363Z,24.20
2023-03-17T12:22:34.480Z,24.49
2023-03-17T12:25:33.540Z,24.45
2023-03-17T12:28:20.237Z,24.99
2023-03-17T12:31:00.260Z,23.96
2023-03-17T12:33:30.798Z,24.86
2023-03-17T12:35:59.536Z,24.70
2023-03-17T12:38:36.422Z,26.20
2023-03-17T12:41:27.612Z,25.21
2023-03-17T12:43:59.961Z,25.36
2023-03-17T12:46:43.836Z,25.00
2023-03-17T12:49:32.037Z,24.93
2023-03-17T12:52:17.549Z,25.78
2023-03-17T12:54:50.320Z,25.68
2023-03-17T12:57:29.517Z,25.18
2023-03-17T13:00:04.378Z,25.58
2023-03-17T13:02:38.911Z,25.92
2023-03-17T13:05:09.422Z,24.67
2023-03-17T13:07:41.468Z,24.89
2023-03-17T13:10:12.342Z,24.61
2023-03-17T13:12:41.805Z,24.70
2023-03-17T13:15:29.913Z,24.71
2023-03-17T13:18:14.601Z,25.24
2023-03-17T13:20:56.094Z,24.16
2023-03-17T13:23:37.592Z,25.40
2023-03-17T13:26:04.114Z,24.81
2023-03-17T13:28:33.730Z,25.32
2023-03-17T13:31:28.328Z,25.08
2023-03-17T13:34:08.286Z,24.76
2023-03-17T13:36:45.670Z,24.63
2023-03-17T13:39:32.229Z,25.40
2023-03-17T13:42:28.426Z,25.91
2023-03-17T13:45:33.979Z,24.49
2023-03-17T13:48:35.957Z,25.57
2023-03-17T13:51:08.422Z,24.21
2023-03-17T13:54:09.898Z,24.24
2023-03-17T13:56:36.549Z,24.07
2023-03-17T13:59:03.134Z,25.68
2023-03-17T14:01:36.795Z,25.71
2023-03-17T14:04:05.672Z,27.60
2023-03-17T14:06:38.206Z,26.10
2023-03-17T14:09:18.561Z,26.90
2023-03-17T14:11:47.889Z,26.31
2023-03-17T14:14:32.873Z,26.52
2023-03-17T14:17:11.997Z,25.35
2023-03-17T14:19:38.926Z,26.40
2023-03-17T14:22:23.966Z,26.77
2023-03-17T14:24:55.861Z,26.27
2023-03-17T14:27:24.551Z,26.85
2023-03-17T14:29:51.366Z,26.30
2023-03-17T14:32:20.170Z,26.51
2023-03-17T14:34:53.534Z,26.67
2023-03-17T14:37:21.752Z,26.81
2023-03-17T14:39:54.284Z,25.54
2023-03-17T14:42:30.185Z,26.45
2023-03-17T14:45:04.932Z,27.25
2023-03-17T14:47:39.701Z,25.89
2023-03-17T14:50:15.738Z,26.03
2023-03-17T14:52:42.819Z,27.20
2023-03-17T14:55:14.629Z,27.22
2023-03-17T14:57:41.251Z,26.41
2023-03-17T15:00:36.735Z,26.82
2023-03-17T15:03:19.584Z,26.61
2023-03-17T15:05:46.974Z,27.41
2023-03-17T15:08:46.242Z,26.54
2023-03-17T15:11:25.310Z,26.19
2023-03-17T15:13:56.598Z,27.44
2023-03-17T15:16:27.881Z,26.57
2023-03-17T15:19:03.043Z,26.96
2023-03-17T15:21:37.970Z,26.68
2023-03-17T15:24:19.045Z,27.62
2023-03-17T15:26:45.548Z,27.26
2023-03-17T15:29:12.134Z,27.24
2023-03-17T15:31:38.654Z,26.58
2023-03-17T15:34:05.218Z,27.22
2023-03-17T15:36:33.310Z,26.93
2023-03-17T15:39:00.671Z,27.68
2023-03-17T15:41:27.249Z,27.72
2023-03-17T15:43:53.836Z,28.32
2023-03-17T15:46:26.467Z,28.88
2023-03-17T15:48:53.681Z,29.51
2023-03-17T15:51:20.645Z,29.02
2023-03-17T15:53:47.295Z,28.88
2023-03-17T15:56:17.661Z,28.84
2023-03-17T15:58:44.954Z,28.83
2023-03-17T16:01:12.793Z,28.56
2023-03-17T16:03:40.073Z,29.00
2023-03-17T16:06:14.511Z,28.49
2023-03-17T16:08:41.041Z,27.79
2023-03-17T16:11:30.823Z,28.17
2023-03-17T16:13:58.833Z,29.36
2023-03-17T16:16:37.318Z,30.61
2023-03-17T16:19:14.088Z,29.75
2023-03-17T16:21:41.090Z,30.37
2023-03-17T16:24:16.930Z,30.13
2023-03-17T16:26:43.566Z,30.46
2023-03-17T16:29:13.655Z,31.65
2023-03-17T16:31:40.989Z,32.47
2023-03-17T16:34:22.025Z,33.57
2023-03-17T16:36:49.766Z,33.17
2023-03-17T16:39:21.508Z,33.00
2023-03-17T16:41:51.753Z,33.34
2023-03-17T16:44:20.530Z,32.96
2023-03-17T16:46:47.642Z,34.67
2023-03-17T16:49:19.580Z,34.06
2023-03-17T16:51:46.714Z,34.04
2023-03-17T16:54:14.077Z,34.30
2023-03-17T16:56:41.949Z,35.49
2023-03-17T16:59:19.872Z,35.39
2023-03-17T17:01:47.849Z,34.46
2023-03-17T17:04:14.438Z,35.17
2023-03-17T17:06:41.038Z,35.28
2023-03-17T17:09:07.640Z,36.85
2023-03-17T17:11:34.322Z,35.40
2023-03-17T17:14:00.847Z,36.43
2023-03-17T17:16:33.738Z,38.40
2023-03-17T17:19:00.353Z,37.47
2023-03-17T17:21:27.734Z,37.72
2023-03-17T17:23:55.302Z,37.85
2023-03-17T17:26:22.706Z,37.64
2023-03-17T17:28:49.830Z,38.04
2023-03-17T17:31:16.513Z,39.51
2023-03-17T17:33:43.166Z,38.88
2023-03-17T17:36:15.502Z,40.93
2023-03-17T17:38:43.043Z,39.60
2023-03-17T17:41:11.369Z,38.61
2023-03-17T17:43:38.495Z,39.52
2023-03-17T17:46:15.657Z,40.32
2023-03-17T17:48:42.300Z,41.30
2023-03-17T17:51:08.823Z,40.61
2023-03-17T17:53:35.665Z,40.37
2023-03-17T17:56:02.567Z,40.00
2023-03-17T17:58:29.257Z,41.72
2023-03-17T18:00:55.974Z,42.74
2023-03-17T18:03:26.506Z,42.01
2023-03-17T18:05:54.851Z,43.13
2023-03-17T18:08:22.534Z,42.05
2023-03-17T18:10:51.509Z,43.19
2023-03-17T18:13:18.687Z,43.13
2023-03-17T18:15:45.282Z,43.58
2023-03-17T18:18:11.856Z,43.67
2023-03-17T18:20:38.420Z,43.84
2023-03-17T18:23:05.034Z,44.29
2023-03-17T18:25:31.579Z,45.05
2023-03-17T18:27:58.581Z,44.98
2023-03-17T18:30:27.973Z,45.60
2023-03-17T18:32:58.992Z,45.99
2023-03-17T18:35:27.471Z,45.88
2023-03-17T18:37:55.718Z,45.57
2023-03-17T18:40:22.444Z,44.95
2023-03-17T18:42:48.933Z,46.06
2023-03-17T18:45:16.454Z,46.75
2023-03-17T18:47:43.086Z,46.48
2023-03-17T18:50:11.979Z,47.53
2023-03-17T18:52:39.816Z,48.03
2023-03-17T18:55:07.693Z,47.61
2023-03-17T18:57:34.546Z,47.88
2023-03-17T19:00:01.160Z,48.11
2023-03-17T19:02:27.770Z,48.66
2023-03-17T19:04:54.346Z,47.83
2023-03-17T19:07:21.018Z,49.38
2023-03-17T19:09:47.837Z,48.66
2023-03-17T19:12:14.377Z,48.66
2023-03-17T19:14:40.939Z,48.86
2023-03-17T19:17:08.248Z,49.37
2023-03-17T19:19:35.702Z,50.41
2023-03-17T19:22:03.777Z,49.97
2023-03-17T19:24:30.644Z,50.44
2023-03-17T19:26:57.208Z,49.95
2023-03-17T19:29:23.836Z,50.49
2023-03-17T19:31:50.393Z,49.94
2023-03-17T19:34:16.995Z,50.26
2023-03-17T19:36:44.223Z,50.65
2023-03-17T19:39:11.086Z,50.14
2023-03-17T19:41:37.752Z,50.52
2023-03-17T19:44:04.988Z,50.42
2023-03-17T19:46:31.638Z,51.31
2023-03-17T19:48:58.202Z,51.05
2023-03-17T19:51:26.446Z,51.82
2023-03-17T19:53:54.284Z,51.91
2023-03-17T19:56:20.929Z,51.75
2023-03-17T19:58:47.520Z,52.44
2023-03-17T20:01:14.415Z,52.45
2023-03-17T20:03:41.111Z,52.93
2023-03-17T20:06:09.195Z,52.28
2023-03-17T20:08:36.291Z,52.58
2023-03-17T20:11:03.944Z,51.70
2023-03-17T20:13:30.649Z,51.24
2023-03-17T20:15:57.205Z,50.38
2023-03-17T20:18:23.999Z,51.06
2023-03-17T20:20:54.794Z,50.79
2023-03-17T20:23:21.567Z,50.36
2023-03-17T20:25:49.066Z,48.25
2023-03-17T20:28:16.638Z,50.03
2023-03-17T20:30:44.979Z,50.39
2023-03-17T20:33:12.980Z,51.88
2023-03-17T20:35:41.222Z,51.77
2023-03-17T20:38:08.284Z,52.98
2023-03-17T20:40:35.156Z,53.92
2023-03-17T20:43:01.856Z,52.81
2023-03-17T20:45:29.062Z,52.58
2023-03-17T20:47:55.570Z,53.09
2023-03-17T20:50:23.016Z,53.38
2023-03-17T20:52:50.670Z,52.52
2023-03-17T20:55:17.576Z,53.28
2023-03-17T20:57:44.545Z,53.38
2023-03-17T21:00:21.420Z,52.95
2023-03-17T21:02:48.948Z,52.98
2023-03-17T21:05:22.800Z,52.96
2023-03-17T21:07:49.908Z,53.17
2023-03-17T21:10:17.486Z,52.98
2023-03-17T21:12:44.208Z,53.45
2023-03-17T21:15:11.668Z,53.33
2023-03-17T21:17:38.851Z,54.09
2023-03-17T21:20:11.858Z,54.40
2023-03-17T21:22:38.955Z,54.42
2023-03-17T21:25:06.134Z,54.55
2023-03-17T21:27:32.913Z,54.05
2023-03-17T21:29:59.642Z,54.43
2023-03-17T21:32:26.226Z,53.40
2023-03-17T21:34:52.822Z,52.96
2023-03-17T21:37:19.372Z,52.77
2023-03-17T21:39:45.934Z,52.43
2023-03-17T21:42:12.966Z,53.28
2023-03-17T21:44:39.671Z,52.94
2023-03-17T21:47:06.255Z,53.25
2023-03-17T21:49:32.851Z,54.42
2023-03-17T21:51:59.439Z,54.13
2023-03-17T21:54:26.210Z,52.87
2023-03-17T21:56:52.873Z,55.03
2023-03-17T21:59:19.693Z,54.51
2023-03-17T22:01:46.383Z,55.57
2023-03-17T22:04:12.900Z,54.22
2023-03-17T22:06:39.922Z,55.76
2023-03-17T22:09:07.166Z,55.77
2023-03-17T22:11:33.813Z,56.01
2023-03-17T22:14:00.355Z,56.31
2023-03-17T22:16:26.986Z,56.61
2023-03-17T22:18:53.729Z,56.84
2023-03-17T22:21:20.945Z,55.68
2023-03-17T22:23:48.307Z,56.39
2023-03-17T22:26:20.571Z,56.89
2023-03-17T22:28:49.138Z,57.17
2023-03-17T22:31:25.026Z,56.78
2023-03-17T22:33:53.934Z,58.03
2023-03-17T22:36:20.914Z,57.26
2023-03-17T22:38:47.830Z,56.47
2023-03-17T22:41:23.670Z,58.01
2023-03-17T22:43:51.144Z,58.29
2023-03-17T22:46:18.375Z,58.28
2023-03-17T22:48:46.234Z,58.28
2023-03-17T22:51:18.765Z,57.78
2023-03-17T22:53:45.898Z,58.62
2023-03-17T22:56:14.227Z,58.56
2023-03-17T22:58:41.465Z,56.82
2023-03-17T23:01:09.060Z,57.32
2023-03-17T23:03:35.842Z,57.14
2023-03-17T23:06:03.915Z,57.38
2023-03-17T23:08:31.761Z,56.38
2023-03-17T23:11:01.011Z,56.10
2023-03-17T23:13:27.904Z,56.15
2023-03-17T23:15:54.652Z,56.27
2023-03-17T23:18:21.177Z,56.59
2023-03-17T23:20:48.814Z,57.30
2023-03-17T23:23:15.545Z,56.24
2023-03-17T23:25:42.259Z,56.35
2023-03-17T23:28:09.702Z,56.31
2023-03-17T23:30:37.141Z,57.15
2023-03-17T23:33:04.908Z,57.88
2023-03-17T23:35:32.234Z,56.80
2023-03-17T23:37:59.734Z,56.84
2023-03-17T23:40:26.309Z,55.56
2023-03-17T23:42:52.914Z,55.66
2023-03-17T23:45:19.503Z,55.66
2023-03-17T23:47:47.229Z,55.41
2023-03-17T23:50:14.835Z,56.49
2023-03-17T23:52:42.580Z,56.79
2023-03-17T23:55:10.706Z,56.63
2023-03-17T23:57:38.359Z,56.06
